Time;durP1;ratioP1;P1;durP2;ratioP2;P2;SDS_P1;SDS_P2;PMS_P1;PMS_P2;Temp;Humidity;BMP_temperature;BMP_pressure;BME280_temperature;BME280_humidity;BME280_pressure;Samples;Min_cycle;Max_cycle;Signal;HPM_P1;HPM_P2
2021/03/30 00:01:37;;;;;;;;;;;10.90;67.50;;;;;;5088855;28;19916;-79
2021/03/30 00:04:03;;;;;;;;;;;10.80;68.00;;;;;;5088848;28;19924;-79
2021/03/30 00:06:30;;;;;;;;;;;10.80;68.10;;;;;;5094765;28;19998;-79
2021/03/30 00:08:56;;;;;;;;;;;10.70;68.90;;;;;;5089369;28;20265;-79
2021/03/30 00:11:22;;;;;;;;;;;10.60;68.40;;;;;;5088118;28;19916;-79
2021/03/30 00:13:47;;;;;;;;;;;10.60;69.00;;;;;;5087306;28;19956;-79
2021/03/30 00:16:15;;;;;;;;;;;10.50;68.70;;;;;;5076574;28;19919;-79
2021/03/30 00:18:40;;;;;;;;;;;10.50;68.70;;;;;;5074135;28;21755;-79
2021/03/30 00:21:06;;;;;;;;;;;10.50;68.20;;;;;;5075304;28;20082;-80
2021/03/30 00:23:32;;;;;;;;;;;10.40;68.70;;;;;;5076484;28;19920;-79
2021/03/30 00:25:57;;;;;;;;;;;10.40;68.60;;;;;;5075126;28;20357;-79
2021/03/30 00:28:23;;;;;;;;;;;10.40;68.90;;;;;;5074870;28;19924;-79
2021/03/30 00:30:51;;;;;;;;;;;10.30;68.80;;;;;;5086065;28;19924;-79
2021/03/30 00:33:18;;;;;;;;;;;10.30;68.80;;;;;;5074874;28;19978;-79
2021/03/30 00:35:44;;;;;;;;;;;10.20;69.00;;;;;;5076071;28;20375;-79
2021/03/30 00:38:12;;;;;;;;;;;10.20;69.50;;;;;;5080150;28;19912;-79
2021/03/30 00:40:38;;;;;;;;;;;10.10;70.10;;;;;;5071210;28;19931;-79
2021/03/30 00:43:03;;;;;;;;;;;10.10;70.20;;;;;;5087134;28;20256;-80
2021/03/30 00:45:29;;;;;;;;;;;10.00;70.30;;;;;;5089507;28;20292;-80
2021/03/30 00:47:54;;;;;;;;;;;10.00;69.70;;;;;;5088963;28;20545;-79
2021/03/30 00:50:21;;;;;;;;;;;10.00;69.80;;;;;;5090828;28;20260;-79
2021/03/30 00:52:47;;;;;;;;;;;9.90;70.00;;;;;;5078156;28;20348;-79
2021/03/30 00:55:13;;;;;;;;;;;9.90;70.10;;;;;;5075055;28;19982;-79
2021/03/30 00:57:38;;;;;;;;;;;9.90;70.20;;;;;;5075221;28;19919;-79
2021/03/30 01:00:05;;;;;;;;;;;9.90;71.40;;;;;;5073967;28;19916;-79
2021/03/30 01:02:33;;;;;;;;;;;9.80;71.00;;;;;;5089971;28;19919;-79
2021/03/30 01:04:59;;;;;;;;;;;9.70;72.00;;;;;;5085144;28;20241;-79
2021/03/30 01:07:25;;;;;;;;;;;9.70;72.00;;;;;;5075165;28;19934;-79
2021/03/30 01:09:53;;;;;;;;;;;9.70;71.00;;;;;;5077638;28;19928;-79
2021/03/30 01:12:39;;;;;;;;;;;9.70;71.20;;;;;;5075144;28;19924;-79
2021/03/30 01:15:05;;;;;;;;;;;9.60;72.80;;;;;;5086015;28;19961;-79
2021/03/30 01:17:44;;;;;;;;;;;9.50;72.40;;;;;;5085545;28;19924;-79
2021/03/30 01:20:13;;;;;;;;;;;9.50;73.00;;;;;;5085712;28;19920;-80
2021/03/30 01:22:41;;;;;;;;;;;9.50;72.60;;;;;;5089464;28;20447;-80
2021/03/30 01:25:06;;;;;;;;;;;9.50;72.20;;;;;;5095520;28;20273;-80
2021/03/30 01:27:47;;;;;;;;;;;9.40;72.70;;;;;;5091579;28;19912;-79
2021/03/30 01:30:13;;;;;;;;;;;9.40;72.90;;;;;;5092200;28;19935;-79
2021/03/30 01:32:42;;;;;;;;;;;9.30;72.80;;;;;;5092664;28;19923;-79
2021/03/30 01:35:15;;;;;;;;;;;9.30;72.80;;;;;;5074070;28;19927;-80
2021/03/30 01:37:44;;;;;;;;;;;9.20;72.10;;;;;;5081849;28;19912;-79
2021/03/30 01:40:10;;;;;;;;;;;9.20;72.50;;;;;;5100401;28;19920;-80
2021/03/30 01:42:36;;;;;;;;;;;9.20;72.20;;;;;;5080593;28;20245;-79
2021/03/30 01:45:02;;;;;;;;;;;9.10;72.40;;;;;;5097324;28;20019;-79
2021/03/30 01:47:28;;;;;;;;;;;9.10;72.10;;;;;;5076464;28;19931;-79
2021/03/30 01:49:56;;;;;;;;;;;9.10;71.90;;;;;;5095898;27;19948;-79
2021/03/30 01:52:21;;;;;;;;;;;9.10;71.60;;;;;;5093859;28;19920;-79
2021/03/30 01:54:47;;;;;;;;;;;9.10;72.20;;;;;;5092079;28;19938;-80
2021/03/30 01:57:15;;;;;;;;;;;9.10;72.50;;;;;;5093285;28;20268;-79
2021/03/30 01:59:41;;;;;;;;;;;9.00;72.90;;;;;;5094608;28;19919;-79
2021/03/30 02:02:07;;;;;;;;;;;9.00;73.00;;;;;;5096562;28;19920;-79
2021/03/30 02:04:32;;;;;;;;;;;9.00;72.60;;;;;;5093187;28;19913;-79
2021/03/30 02:06:58;;;;;;;;;;;9.00;72.80;;;;;;5065280;28;19928;-79
2021/03/30 02:09:36;;;;;;;;;;;9.00;73.10;;;;;;5076835;28;20326;-79
2021/03/30 02:12:08;;;;;;;;;;;8.90;73.70;;;;;;5078890;28;19927;-79
2021/03/30 02:14:36;;;;;;;;;;;8.90;73.90;;;;;;5078565;28;19920;-79
2021/03/30 02:17:12;;;;;;;;;;;8.90;72.50;;;;;;5077638;28;19920;-79
2021/03/30 02:19:42;;;;;;;;;;;8.80;73.00;;;;;;5078695;28;19920;-79
2021/03/30 02:22:11;;;;;;;;;;;8.80;73.60;;;;;;5080987;28;20379;-79
2021/03/30 02:24:37;;;;;;;;;;;8.80;72.90;;;;;;5088891;28;20054;-79
2021/03/30 02:27:04;;;;;;;;;;;8.80;74.30;;;;;;5092007;28;20003;-79
2021/03/30 02:29:34;;;;;;;;;;;8.70;74.40;;;;;;5088414;28;19920;-80
2021/03/30 02:31:59;;;;;;;;;;;8.60;75.10;;;;;;5077549;28;19984;-79
2021/03/30 02:34:26;;;;;;;;;;;8.60;74.30;;;;;;5077502;28;19931;-79
2021/03/30 02:36:56;;;;;;;;;;;8.60;74.50;;;;;;5081051;28;20007;-79
2021/03/30 02:39:23;;;;;;;;;;;8.60;75.40;;;;;;5078251;28;20434;-79
2021/03/30 02:41:49;;;;;;;;;;;8.60;75.00;;;;;;5090016;28;19920;-79
2021/03/30 02:44:14;;;;;;;;;;;8.60;75.10;;;;;;5097680;28;19912;-79
2021/03/30 02:46:40;;;;;;;;;;;8.50;74.00;;;;;;5093796;28;19931;-79
2021/03/30 02:49:06;;;;;;;;;;;8.50;73.90;;;;;;5092804;28;19955;-79
2021/03/30 02:51:32;;;;;;;;;;;8.50;75.40;;;;;;5093806;28;19920;-79
2021/03/30 02:53:58;;;;;;;;;;;8.50;75.80;;;;;;5079653;28;19973;-79
2021/03/30 02:56:23;;;;;;;;;;;8.40;76.00;;;;;;5108617;27;19916;-79
2021/03/30 02:58:52;;;;;;;;;;;8.40;75.60;;;;;;5088007;28;19931;-79
2021/03/30 03:01:17;;;;;;;;;;;8.40;75.30;;;;;;5059772;28;20295;-79
2021/03/30 03:03:43;;;;;;;;;;;8.40;75.40;;;;;;5076011;28;19916;-79
2021/03/30 03:06:09;;;;;;;;;;;8.30;75.00;;;;;;5063758;28;19931;-80
2021/03/30 03:08:34;;;;;;;;;;;8.30;75.70;;;;;;5092005;27;19920;-79
2021/03/30 03:11:00;;;;;;;;;;;8.30;75.60;;;;;;5079029;28;20047;-79
2021/03/30 03:13:25;;;;;;;;;;;8.30;76.00;;;;;;5092767;27;19924;-79
2021/03/30 03:15:51;;;;;;;;;;;8.20;76.40;;;;;;5079010;28;19928;-80
2021/03/30 03:18:17;;;;;;;;;;;8.20;75.60;;;;;;5089633;28;19977;-79
2021/03/30 03:20:49;;;;;;;;;;;8.20;77.00;;;;;;5091295;28;19912;-79
2021/03/30 03:23:14;;;;;;;;;;;8.20;76.40;;;;;;5082199;28;20522;-79
2021/03/30 03:25:40;;;;;;;;;;;8.20;76.30;;;;;;5090942;28;19916;-79
2021/03/30 03:28:05;;;;;;;;;;;8.20;77.10;;;;;;5094114;28;20289;-80
2021/03/30 03:30:31;;;;;;;;;;;8.20;77.00;;;;;;5093822;28;19923;-79
2021/03/30 03:33:06;;;;;;;;;;;8.20;76.70;;;;;;5091683;28;20409;-80
2021/03/30 03:35:32;;;;;;;;;;;8.20;77.00;;;;;;5089170;28;19935;-79
2021/03/30 03:38:02;;;;;;;;;;;8.20;76.80;;;;;;5078136;28;20330;-79
2021/03/30 03:40:27;;;;;;;;;;;8.20;76.70;;;;;;5092833;27;20045;-79
2021/03/30 03:42:55;;;;;;;;;;;8.30;76.00;;;;;;5079588;28;19923;-79
2021/03/30 03:45:21;;;;;;;;;;;8.20;76.40;;;;;;5075844;28;20386;-79
2021/03/30 03:47:51;;;;;;;;;;;8.20;79.00;;;;;;5075734;28;20011;-80
2021/03/30 03:50:20;;;;;;;;;;;8.20;78.70;;;;;;5086959;28;19941;-80
2021/03/30 03:52:47;;;;;;;;;;;8.20;77.40;;;;;;5075019;28;19931;-80
2021/03/30 03:55:16;;;;;;;;;;;8.20;77.60;;;;;;5092326;27;20758;-79
2021/03/30 03:57:45;;;;;;;;;;;8.10;77.90;;;;;;5086698;28;19935;-79
2021/03/30 04:00:10;;;;;;;;;;;8.10;77.40;;;;;;5077566;28;19927;-79
2021/03/30 04:02:37;;;;;;;;;;;8.10;78.70;;;;;;5076373;28;19919;-80
2021/03/30 04:05:03;;;;;;;;;;;8.10;78.30;;;;;;5086558;28;20411;-79
2021/03/30 04:07:29;;;;;;;;;;;8.10;77.80;;;;;;5093346;28;19916;-79
2021/03/30 04:09:55;;;;;;;;;;;8.10;77.50;;;;;;5085215;28;20540;-79
2021/03/30 04:12:21;;;;;;;;;;;8.00;78.10;;;;;;5090737;27;19924;-79
2021/03/30 04:14:52;;;;;;;;;;;8.00;78.40;;;;;;5082741;28;19912;-80
2021/03/30 04:17:17;;;;;;;;;;;8.00;79.20;;;;;;5088915;28;19923;-80
2021/03/30 04:19:44;;;;;;;;;;;7.90;79.80;;;;;;5090327;28;19913;-79
2021/03/30 04:22:10;;;;;;;;;;;7.90;79.90;;;;;;5091134;28;19946;-79
2021/03/30 04:24:36;;;;;;;;;;;7.90;78.80;;;;;;5088035;28;20341;-79
2021/03/30 04:27:01;;;;;;;;;;;7.90;78.00;;;;;;5083755;28;19969;-79
2021/03/30 04:29:27;;;;;;;;;;;7.90;78.10;;;;;;5085966;28;19989;-79
2021/03/30 04:31:54;;;;;;;;;;;7.90;77.30;;;;;;5092112;28;19912;-79
2021/03/30 04:34:20;;;;;;;;;;;7.80;78.10;;;;;;5080217;28;19977;-79
2021/03/30 04:36:46;;;;;;;;;;;7.80;78.70;;;;;;5074925;28;20019;-80
2021/03/30 04:39:11;;;;;;;;;;;7.70;80.00;;;;;;5076306;28;19916;-79
2021/03/30 04:41:37;;;;;;;;;;;7.70;79.80;;;;;;5085322;28;19912;-79
2021/03/30 04:44:02;;;;;;;;;;;7.60;79.50;;;;;;5091154;28;20339;-79
2021/03/30 04:46:28;;;;;;;;;;;7.60;79.20;;;;;;5093551;28;20022;-79
2021/03/30 04:48:54;;;;;;;;;;;7.60;79.50;;;;;;5087004;28;19923;-79
2021/03/30 04:51:19;;;;;;;;;;;7.60;81.00;;;;;;5088982;28;19917;-79
2021/03/30 04:53:45;;;;;;;;;;;7.60;78.70;;;;;;5079686;28;20482;-79
2021/03/30 04:56:10;;;;;;;;;;;7.60;78.60;;;;;;5073351;28;19943;-79
2021/03/30 04:58:38;;;;;;;;;;;7.50;79.00;;;;;;5075267;28;19915;-79
2021/03/30 05:01:04;;;;;;;;;;;7.50;79.00;;;;;;5075089;28;19920;-80
2021/03/30 05:03:29;;;;;;;;;;;7.50;79.30;;;;;;5076546;28;20402;-79
2021/03/30 05:05:55;;;;;;;;;;;7.40;79.00;;;;;;5075905;28;19969;-79
2021/03/30 05:08:20;;;;;;;;;;;7.40;78.20;;;;;;5076615;28;20038;-79
2021/03/30 05:10:48;;;;;;;;;;;7.40;78.30;;;;;;5074783;28;20022;-79
2021/03/30 05:13:16;;;;;;;;;;;7.30;79.50;;;;;;5078516;28;19920;-79
2021/03/30 05:15:42;;;;;;;;;;;7.30;80.80;;;;;;5107642;27;20003;-78
2021/03/30 05:18:07;;;;;;;;;;;7.30;80.30;;;;;;5075035;28;19920;-78
2021/03/30 05:20:33;;;;;;;;;;;7.30;81.80;;;;;;5078877;28;20044;-81
2021/03/30 05:22:58;;;;;;;;;;;7.30;80.60;;;;;;5086797;28;20122;-81
2021/03/30 05:25:24;;;;;;;;;;;7.20;81.60;;;;;;5087431;28;19912;-81
2021/03/30 05:27:50;;;;;;;;;;;7.20;81.60;;;;;;5088309;28;20412;-78
2021/03/30 05:30:16;;;;;;;;;;;7.10;82.80;;;;;;5088789;28;19916;-78
2021/03/30 05:32:44;;;;;;;;;;;7.10;82.50;;;;;;5088060;28;19979;-78
2021/03/30 05:35:10;;;;;;;;;;;7.10;81.40;;;;;;5101238;27;20372;-81
2021/03/30 05:37:38;;;;;;;;;;;7.10;81.30;;;;;;5074881;28;19920;-79
2021/03/30 05:40:05;;;;;;;;;;;7.10;82.30;;;;;;5074856;28;20012;-78
2021/03/30 05:42:33;;;;;;;;;;;7.10;84.20;;;;;;5074568;28;19922;-78
2021/03/30 05:44:58;;;;;;;;;;;7.00;81.80;;;;;;5074856;28;19923;-78
2021/03/30 05:47:26;;;;;;;;;;;7.10;83.30;;;;;;5089326;28;19928;-80
2021/03/30 05:49:53;;;;;;;;;;;7.00;84.90;;;;;;5089546;28;19942;-81
2021/03/30 05:52:28;;;;;;;;;;;7.00;84.80;;;;;;5089235;28;19951;-78
2021/03/30 05:54:56;;;;;;;;;;;7.00;87.00;;;;;;5086511;28;20338;-79
2021/03/30 05:57:26;;;;;;;;;;;7.10;85.00;;;;;;5087114;28;19917;-78
2021/03/30 05:59:55;;;;;;;;;;;7.10;85.80;;;;;;5085924;28;19912;-79
2021/03/30 06:02:43;;;;;;;;;;;7.10;85.50;;;;;;5088179;28;19912;-79
2021/03/30 06:05:11;;;;;;;;;;;7.10;89.10;;;;;;5122163;27;19920;-79
2021/03/30 06:07:37;;;;;;;;;;;7.10;90.50;;;;;;5106863;27;19922;-79
2021/03/30 06:10:04;;;;;;;;;;;7.10;89.70;;;;;;5088965;28;20824;-81
2021/03/30 06:12:30;;;;;;;;;;;7.20;88.70;;;;;;5096893;28;20007;-80
2021/03/30 06:14:58;;;;;;;;;;;7.20;91.30;;;;;;5097554;28;20015;-79
2021/03/30 06:17:23;;;;;;;;;;;7.20;91.10;;;;;;5084426;28;19930;-78
2021/03/30 06:19:50;;;;;;;;;;;7.30;90.30;;;;;;5088504;28;19919;-79
2021/03/30 06:22:16;;;;;;;;;;;7.30;89.40;;;;;;5094548;28;19966;-78
2021/03/30 06:24:41;;;;;;;;;;;7.30;94.30;;;;;;5091132;28;19923;-81
2021/03/30 06:27:07;;;;;;;;;;;7.40;93.70;;;;;;5091051;28;20300;-78
2021/03/30 06:29:36;;;;;;;;;;;7.50;93.90;;;;;;5096095;28;20019;-78
2021/03/30 06:32:11;;;;;;;;;;;7.50;93.80;;;;;;5095132;28;19978;-81
2021/03/30 06:34:41;;;;;;;;;;;7.60;91.90;;;;;;5089869;28;19920;-81
2021/03/30 06:37:25;;;;;;;;;;;7.60;91.70;;;;;;5076302;28;19919;-81
2021/03/30 06:39:51;;;;;;;;;;;7.70;91.40;;;;;;5084359;28;20010;-81
2021/03/30 06:42:33;;;;;;;;;;;7.80;93.10;;;;;;5097856;28;19999;-81
2021/03/30 06:44:58;;;;;;;;;;;7.80;92.40;;;;;;5092314;28;19924;-79
2021/03/30 06:47:26;;;;;;;;;;;7.90;91.90;;;;;;5092463;28;19934;-81
2021/03/30 06:50:03;;;;;;;;;;;8.00;92.30;;;;;;5124797;27;20341;-81
2021/03/30 06:52:30;;;;;;;;;;;8.10;93.60;;;;;;5087427;28;19919;-81
2021/03/30 06:55:00;;;;;;;;;;;8.10;91.80;;;;;;5090263;28;19920;-81
2021/03/30 06:57:45;;;;;;;;;;;8.20;90.90;;;;;;5091695;28;19921;-82
2021/03/30 07:00:30;;;;;;;;;;;8.30;92.60;;;;;;5092156;28;20281;-82
2021/03/30 07:02:57;;;;;;;;;;;8.40;92.30;;;;;;5091514;28;19911;-81
2021/03/30 07:05:25;;;;;;;;;;;8.50;93.10;;;;;;5105650;27;19973;-82
2021/03/30 07:07:52;;;;;;;;;;;8.60;92.50;;;;;;5088729;28;19956;-82
2021/03/30 07:10:17;;;;;;;;;;;8.60;92.50;;;;;;5093150;28;19920;-82
2021/03/30 07:12:43;;;;;;;;;;;8.70;91.10;;;;;;5071014;28;19920;-79
2021/03/30 07:15:09;;;;;;;;;;;8.80;91.80;;;;;;5084902;28;20014;-79
2021/03/30 07:17:34;;;;;;;;;;;8.90;92.40;;;;;;5089235;28;20273;-79
2021/03/30 07:20:00;;;;;;;;;;;8.90;91.50;;;;;;5082860;28;20113;-79
2021/03/30 07:22:29;;;;;;;;;;;9.00;92.30;;;;;;5077701;28;20006;-79
2021/03/30 07:24:59;;;;;;;;;;;9.10;91.70;;;;;;5093470;27;20461;-79
2021/03/30 07:27:29;;;;;;;;;;;9.20;92.00;;;;;;5062665;28;19919;-80
2021/03/30 07:29:55;;;;;;;;;;;9.30;91.90;;;;;;5074858;28;20060;-79
2021/03/30 07:32:28;;;;;;;;;;;9.30;91.60;;;;;;5061064;28;20062;-79
2021/03/30 07:35:01;;;;;;;;;;;9.40;91.40;;;;;;5086350;28;19912;-81
2021/03/30 07:37:53;;;;;;;;;;;9.50;92.10;;;;;;5077285;28;19924;-79
2021/03/30 07:40:19;;;;;;;;;;;9.60;91.80;;;;;;5061842;28;19913;-87
2021/03/30 07:42:45;;;;;;;;;;;9.70;92.70;;;;;;5066643;28;19923;-82
2021/03/30 07:45:12;;;;;;;;;;;9.80;91.70;;;;;;5076950;28;19920;-79
2021/03/30 07:47:39;;;;;;;;;;;9.80;92.10;;;;;;5086642;28;19916;-79
2021/03/30 07:50:06;;;;;;;;;;;9.90;92.40;;;;;;5090803;28;20403;-79
2021/03/30 07:52:36;;;;;;;;;;;10.00;91.80;;;;;;5084355;28;19916;-79
2021/03/30 07:55:20;;;;;;;;;;;10.00;92.90;;;;;;5088000;28;19920;-81
2021/03/30 07:58:06;;;;;;;;;;;10.10;91.40;;;;;;5087787;28;19920;-81
2021/03/30 08:00:32;;;;;;;;;;;10.20;92.50;;;;;;5089368;28;19922;-85
2021/03/30 08:02:58;;;;;;;;;;;10.30;91.70;;;;;;5086940;28;19912;-85
2021/03/30 08:05:26;;;;;;;;;;;10.40;90.60;;;;;;5107291;27;20513;-81
2021/03/30 08:07:52;;;;;;;;;;;10.60;90.30;;;;;;5089228;28;19923;-81
2021/03/30 08:10:29;;;;;;;;;;;10.60;90.60;;;;;;5085316;28;19920;-81
2021/03/30 08:13:13;;;;;;;;;;;10.80;91.70;;;;;;5089349;28;20396;-82
2021/03/30 08:15:42;;;;;;;;;;;10.90;91.40;;;;;;5087080;28;19921;-82
2021/03/30 08:18:09;;;;;;;;;;;11.00;90.90;;;;;;5118939;27;19912;-81
2021/03/30 08:20:57;;;;;;;;;;;11.10;90.30;;;;;;5084842;28;20165;-81
2021/03/30 08:23:22;;;;;;;;;;;11.30;90.20;;;;;;5090101;28;19916;-81
2021/03/30 08:25:50;;;;;;;;;;;11.40;88.50;;;;;;5072455;28;19916;-81
2021/03/30 08:28:34;;;;;;;;;;;11.60;90.80;;;;;;5090408;28;19930;-79
2021/03/30 08:30:59;;;;;;;;;;;11.80;89.10;;;;;;5088050;28;19924;-82
2021/03/30 08:33:32;;;;;;;;;;;12.00;89.50;;;;;;5085901;28;19977;-79
2021/03/30 08:36:13;;;;;;;;;;;12.10;84.00;;;;;;5088216;28;19912;-79
2021/03/30 08:38:43;;;;;;;;;;;12.30;88.90;;;;;;5087093;28;19924;-82
2021/03/30 08:41:09;;;;;;;;;;;12.60;86.00;;;;;;5086808;28;19927;-81
2021/03/30 08:43:34;;;;;;;;;;;12.70;85.40;;;;;;5086697;28;20472;-81
2021/03/30 08:46:04;;;;;;;;;;;12.90;79.90;;;;;;5121355;27;20252;-82
2021/03/30 08:48:32;;;;;;;;;;;13.10;78.70;;;;;;5082825;28;19931;-83
2021/03/30 08:50:59;;;;;;;;;;;13.30;84.90;;;;;;5089312;28;19932;-87
2021/03/30 08:53:29;;;;;;;;;;;13.50;77.30;;;;;;5085775;28;20562;-87
2021/03/30 08:55:55;;;;;;;;;;;13.70;79.90;;;;;;5087994;28;19958;-83
2021/03/30 08:58:25;;;;;;;;;;;13.90;81.90;;;;;;5090403;28;20134;-83
2021/03/30 09:00:52;;;;;;;;;;;14.20;82.50;;;;;;5087309;28;19916;-82
2021/03/30 09:03:23;;;;;;;;;;;14.30;79.10;;;;;;5089908;28;19928;-72
2021/03/30 09:05:48;;;;;;;;;;;14.60;80.30;;;;;;5090158;28;19934;-72
2021/03/30 09:08:14;;;;;;;;;;;14.80;80.30;;;;;;5087506;28;19919;-72
2021/03/30 09:10:40;;;;;;;;;;;15.00;72.80;;;;;;5088419;28;19923;-72
2021/03/30 09:13:15;;;;;;;;;;;15.20;74.80;;;;;;5087643;28;20002;-73
2021/03/30 09:15:41;;;;;;;;;;;15.40;69.90;;;;;;5085767;28;19935;-72
2021/03/30 09:18:09;;;;;;;;;;;15.70;72.30;;;;;;5088862;28;19920;-73
2021/03/30 09:20:34;;;;;;;;;;;15.90;71.00;;;;;;5086363;28;20011;-73
2021/03/30 09:23:13;;;;;;;;;;;16.00;74.30;;;;;;5088248;28;19999;-73
2021/03/30 09:25:42;;;;;;;;;;;16.30;66.90;;;;;;5082210;28;20002;-73
2021/03/30 09:28:16;;;;;;;;;;;16.50;71.80;;;;;;5084055;28;19942;-73
2021/03/30 09:30:43;;;;;;;;;;;16.70;66.80;;;;;;5088588;28;19938;-73
2021/03/30 09:33:09;;;;;;;;;;;16.80;65.30;;;;;;5088065;28;19916;-73
2021/03/30 09:35:34;;;;;;;;;;;17.00;67.90;;;;;;5089498;28;19922;-73
2021/03/30 09:38:02;;;;;;;;;;;17.20;63.60;;;;;;5089417;28;19912;-73
2021/03/30 09:40:30;;;;;;;;;;;17.30;69.70;;;;;;5087506;28;19970;-73
2021/03/30 09:42:59;;;;;;;;;;;17.50;62.20;;;;;;5089915;28;19912;-74
2021/03/30 09:45:28;;;;;;;;;;;17.60;64.50;;;;;;5090544;28;19922;-73
2021/03/30 09:47:53;;;;;;;;;;;17.80;62.60;;;;;;5088457;28;19916;-73
2021/03/30 09:50:22;;;;;;;;;;;17.90;61.10;;;;;;5075726;28;19924;-73
2021/03/30 09:52:48;;;;;;;;;;;18.00;65.70;;;;;;5091665;28;19935;-73
2021/03/30 09:55:26;;;;;;;;;;;18.20;67.80;;;;;;5080899;28;19915;-73
2021/03/30 09:57:57;;;;;;;;;;;18.30;61.60;;;;;;5092204;28;19916;-73
2021/03/30 10:00:23;;;;;;;;;;;18.40;60.90;;;;;;5091464;28;20435;-73
2021/03/30 10:02:49;;;;;;;;;;;18.60;59.90;;;;;;5088590;28;19963;-73
2021/03/30 10:05:14;;;;;;;;;;;18.70;62.40;;;;;;5090180;28;20545;-76
2021/03/30 10:07:40;;;;;;;;;;;18.80;58.30;;;;;;5090042;28;19924;-76
2021/03/30 10:10:07;;;;;;;;;;;18.90;58.20;;;;;;5088970;28;19927;-73
2021/03/30 10:12:49;;;;;;;;;;;19.00;58.70;;;;;;5090788;28;19913;-74
2021/03/30 10:15:15;;;;;;;;;;;19.00;59.20;;;;;;5088815;28;19917;-73
2021/03/30 10:17:42;;;;;;;;;;;19.10;58.60;;;;;;5096712;28;19923;-73
2021/03/30 10:20:11;;;;;;;;;;;19.20;55.20;;;;;;5090310;28;19924;-73
2021/03/30 10:22:46;;;;;;;;;;;19.30;54.10;;;;;;5092038;28;20477;-73
2021/03/30 10:25:27;;;;;;;;;;;19.40;55.40;;;;;;5093735;28;19951;-73
2021/03/30 10:27:57;;;;;;;;;;;19.50;53.40;;;;;;5092273;28;20482;-73
2021/03/30 10:30:38;;;;;;;;;;;19.60;55.30;;;;;;5089076;28;19983;-73
2021/03/30 10:33:10;;;;;;;;;;;19.70;52.50;;;;;;5095846;28;19916;-74
2021/03/30 10:35:36;;;;;;;;;;;19.80;55.50;;;;;;5088285;28;19919;-74
2021/03/30 10:38:01;;;;;;;;;;;19.90;57.50;;;;;;5089026;28;19919;-74
2021/03/30 10:40:34;;;;;;;;;;;19.90;52.10;;;;;;5074801;28;20338;-74
2021/03/30 10:43:15;;;;;;;;;;;20.00;50.00;;;;;;5087418;28;19920;-74
2021/03/30 10:45:41;;;;;;;;;;;20.10;53.30;;;;;;5088464;28;19919;-74
2021/03/30 10:48:07;;;;;;;;;;;20.20;50.90;;;;;;5090185;28;20428;-74
2021/03/30 10:50:32;;;;;;;;;;;20.30;54.50;;;;;;5088437;28;20385;-74
2021/03/30 10:53:02;;;;;;;;;;;20.40;57.30;;;;;;5090185;28;19911;-74
2021/03/30 10:55:29;;;;;;;;;;;20.50;51.30;;;;;;5090513;28;20527;-74
2021/03/30 10:57:57;;;;;;;;;;;20.80;51.30;;;;;;5073835;28;20011;-74
2021/03/30 11:00:27;;;;;;;;;;;20.90;56.00;;;;;;5086854;28;19942;-74
2021/03/30 11:02:54;;;;;;;;;;;21.00;48.50;;;;;;5089978;28;19917;-73
2021/03/30 11:05:20;;;;;;;;;;;21.00;52.40;;;;;;5090915;28;19920;-74
2021/03/30 11:07:45;;;;;;;;;;;21.30;48.90;;;;;;5107487;27;19960;-74
2021/03/30 11:10:11;;;;;;;;;;;21.50;46.90;;;;;;5089843;28;19928;-74
2021/03/30 11:12:38;;;;;;;;;;;21.70;49.40;;;;;;5087150;28;19943;-74
2021/03/30 11:15:07;;;;;;;;;;;21.80;52.60;;;;;;5090879;28;19912;-74
2021/03/30 11:17:32;;;;;;;;;;;22.00;46.60;;;;;;5091918;28;19916;-74
2021/03/30 11:19:58;;;;;;;;;;;22.10;45.60;;;;;;5088313;28;19939;-74
2021/03/30 11:22:23;;;;;;;;;;;22.30;46.20;;;;;;5087964;28;19912;-74
2021/03/30 11:24:55;;;;;;;;;;;22.40;45.90;;;;;;5091053;28;20269;-74
2021/03/30 11:27:23;;;;;;;;;;;22.40;48.80;;;;;;5092188;28;19921;-74
2021/03/30 11:30:03;;;;;;;;;;;22.50;43.80;;;;;;5088080;28;20253;-74
2021/03/30 11:32:40;;;;;;;;;;;22.70;49.20;;;;;;5089488;28;19937;-80
2021/03/30 11:35:18;;;;;;;;;;;22.90;44.60;;;;;;5087494;28;20023;-74
2021/03/30 11:40:40;;;;;;;;;;;23.20;42.40;;;;;;5076450;28;19927;-74
2021/03/30 11:43:08;;;;;;;;;;;23.20;41.70;;;;;;5088743;28;19959;-74
2021/03/30 11:45:34;;;;;;;;;;;23.20;43.30;;;;;;5089728;28;19912;-75
2021/03/30 11:48:02;;;;;;;;;;;23.20;45.70;;;;;;5085100;28;20467;-74
2021/03/30 11:50:28;;;;;;;;;;;23.40;43.30;;;;;;5088828;28;20086;-75
2021/03/30 11:52:53;;;;;;;;;;;23.70;41.20;;;;;;5088551;28;19916;-74
2021/03/30 11:55:19;;;;;;;;;;;23.90;40.90;;;;;;5088779;28;20363;-74
2021/03/30 11:57:50;;;;;;;;;;;24.20;39.30;;;;;;5087954;28;19920;-79
2021/03/30 12:00:16;;;;;;;;;;;24.30;40.90;;;;;;5090397;28;20068;-75
2021/03/30 12:02:41;;;;;;;;;;;24.40;43.00;;;;;;5081281;28;20006;-76
2021/03/30 12:05:07;;;;;;;;;;;24.40;39.10;;;;;;5084528;28;19920;-74
2021/03/30 12:07:35;;;;;;;;;;;24.60;40.40;;;;;;5086108;28;20003;-74
2021/03/30 12:10:03;;;;;;;;;;;24.80;43.00;;;;;;5089809;28;19935;-74
2021/03/30 12:12:30;;;;;;;;;;;24.90;39.40;;;;;;5104932;27;19962;-74
2021/03/30 12:14:56;;;;;;;;;;;24.90;40.60;;;;;;5088831;28;19964;-74
2021/03/30 12:17:21;;;;;;;;;;;24.90;38.70;;;;;;5089654;28;20447;-74
2021/03/30 12:19:50;;;;;;;;;;;24.90;38.60;;;;;;5090966;28;20011;-74
2021/03/30 12:22:18;;;;;;;;;;;25.00;44.10;;;;;;5094737;28;19920;-74
2021/03/30 12:24:46;;;;;;;;;;;25.10;38.40;;;;;;5093079;28;19920;-74
2021/03/30 12:27:14;;;;;;;;;;;25.10;39.40;;;;;;5090996;28;19916;-74
2021/03/30 12:29:41;;;;;;;;;;;25.00;38.20;;;;;;5090089;28;20139;-75
2021/03/30 12:32:12;;;;;;;;;;;25.10;42.00;;;;;;5088007;28;19968;-74
2021/03/30 12:34:39;;;;;;;;;;;25.40;39.30;;;;;;5088474;28;20369;-74
2021/03/30 12:37:04;;;;;;;;;;;25.50;39.40;;;;;;5088506;28;19912;-73
2021/03/30 12:39:30;;;;;;;;;;;25.60;42.00;;;;;;5086593;28;19972;-74
2021/03/30 12:41:58;;;;;;;;;;;25.60;38.30;;;;;;5074745;28;19990;-74
2021/03/30 12:44:25;;;;;;;;;;;25.70;37.50;;;;;;5088812;28;19969;-74
2021/03/30 12:46:51;;;;;;;;;;;25.80;41.70;;;;;;5095019;28;19970;-74
2021/03/30 12:49:16;;;;;;;;;;;25.80;39.40;;;;;;5089136;28;19943;-73
2021/03/30 12:51:44;;;;;;;;;;;25.80;39.40;;;;;;5087506;28;20325;-73
2021/03/30 12:54:10;;;;;;;;;;;26.10;39.50;;;;;;5088961;28;20331;-74
2021/03/30 12:56:38;;;;;;;;;;;26.20;41.20;;;;;;5091570;28;19916;-74
2021/03/30 12:59:03;;;;;;;;;;;26.20;40.30;;;;;;5089191;28;19916;-74
2021/03/30 13:01:31;;;;;;;;;;;26.20;38.70;;;;;;5086378;28;19916;-73
2021/03/30 13:03:57;;;;;;;;;;;26.30;39.90;;;;;;5085373;28;20068;-74
2021/03/30 13:06:23;;;;;;;;;;;26.30;40.80;;;;;;5091123;28;20028;-74
2021/03/30 13:08:48;;;;;;;;;;;26.50;38.80;;;;;;5090805;28;19915;-73
2021/03/30 13:11:14;;;;;;;;;;;26.70;39.50;;;;;;5089180;28;19942;-73
2021/03/30 13:13:42;;;;;;;;;;;26.90;37.00;;;;;;5088174;28;19941;-73
2021/03/30 13:16:07;;;;;;;;;;;27.00;39.70;;;;;;5088907;28;20011;-73
2021/03/30 13:18:33;;;;;;;;;;;26.90;37.90;;;;;;5095285;28;20003;-73
2021/03/30 13:21:01;;;;;;;;;;;26.90;37.20;;;;;;5094943;28;19954;-73
2021/03/30 13:23:29;;;;;;;;;;;26.80;36.30;;;;;;5096750;28;19916;-73
2021/03/30 13:25:54;;;;;;;;;;;26.70;36.80;;;;;;5099340;28;19973;-73
2021/03/30 13:28:23;;;;;;;;;;;26.60;38.50;;;;;;5094517;28;19915;-74
2021/03/30 13:30:48;;;;;;;;;;;26.70;40.80;;;;;;5095260;28;20041;-73
2021/03/30 13:33:14;;;;;;;;;;;26.80;39.30;;;;;;5093538;28;20006;-73
2021/03/30 13:35:39;;;;;;;;;;;26.80;36.00;;;;;;5097903;28;19920;-73
2021/03/30 13:38:07;;;;;;;;;;;26.90;36.90;;;;;;5081641;28;20385;-73
2021/03/30 13:40:33;;;;;;;;;;;26.90;41.50;;;;;;5080354;28;19926;-73
2021/03/30 13:42:59;;;;;;;;;;;26.90;35.50;;;;;;5093342;28;20003;-74
2021/03/30 13:45:27;;;;;;;;;;;26.90;37.20;;;;;;5127594;27;19916;-73
2021/03/30 13:47:57;;;;;;;;;;;26.80;35.30;;;;;;5095306;28;19911;-73
2021/03/30 13:50:27;;;;;;;;;;;26.80;35.60;;;;;;5093872;28;19927;-73
2021/03/30 13:52:53;;;;;;;;;;;26.70;37.00;;;;;;5093304;28;20011;-73
2021/03/30 13:55:19;;;;;;;;;;;26.60;35.50;;;;;;5095937;28;20050;-73
2021/03/30 13:57:46;;;;;;;;;;;26.60;38.20;;;;;;5094770;28;19916;-73
2021/03/30 14:00:13;;;;;;;;;;;26.50;39.10;;;;;;5097960;28;20041;-73
2021/03/30 14:02:40;;;;;;;;;;;26.50;36.50;;;;;;5093080;28;19912;-73
2021/03/30 14:05:08;;;;;;;;;;;26.40;32.60;;;;;;5093771;28;19924;-73
2021/03/30 14:07:34;;;;;;;;;;;26.30;34.70;;;;;;5097980;28;19923;-73
2021/03/30 14:10:04;;;;;;;;;;;26.20;34.60;;;;;;5090761;28;20284;-73
2021/03/30 14:12:35;;;;;;;;;;;26.20;35.40;;;;;;5095624;28;19927;-73
2021/03/30 14:15:06;;;;;;;;;;;26.10;34.20;;;;;;5093499;28;19998;-73
2021/03/30 14:17:38;;;;;;;;;;;26.00;35.10;;;;;;5125970;27;20360;-73
2021/03/30 14:20:05;;;;;;;;;;;25.80;31.90;;;;;;5095459;28;19920;-73
2021/03/30 14:22:35;;;;;;;;;;;25.60;34.90;;;;;;5103845;27;19990;-73
2021/03/30 14:25:15;;;;;;;;;;;25.50;34.40;;;;;;5084815;28;19916;-73
2021/03/30 14:27:43;;;;;;;;;;;25.40;37.20;;;;;;5093736;28;19960;-73
2021/03/30 14:30:09;;;;;;;;;;;25.30;37.30;;;;;;5110652;27;19929;-73
2021/03/30 14:32:34;;;;;;;;;;;25.20;39.00;;;;;;5092156;28;19920;-73